sensor_id;sensor_type;location;lat;lon;timestamp;temperature;humidity
26575;DHT22;67165;50.256;10.978;2023-05-24T00:00:29;9.90;98.00
26575;DHT22;67165;50.256;10.978;2023-05-24T00:02:55;9.90;98.00
26575;DHT22;67165;50.256;10.978;2023-05-24T00:05:22;9.90;98.00
26575;DHT22;67165;50.256;10.978;2023-05-24T00:07:48;9.90;98.00
26575;DHT22;67165;50.256;10.978;2023-05-24T00:10:13;9.90;98.00
26575;DHT22;67165;50.256;10.978;2023-05-24T00:12:40;9.90;98.00
26575;DHT22;67165;50.256;10.978;2023-05-24T00:15:06;9.90;98.00
26575;DHT22;67165;50.256;10.978;2023-05-24T00:17:32;9.90;98.00
26575;DHT22;67165;50.256;10.978;2023-05-24T00:19:59;9.80;98.00
26575;DHT22;67165;50.256;10.978;2023-05-24T00:22:24;9.80;98.00
26575;DHT22;67165;50.256;10.978;2023-05-24T00:24:50;9.80;98.00
26575;DHT22;67165;50.256;10.978;2023-05-24T00:27:16;9.80;98.00
26575;DHT22;67165;50.256;10.978;2023-05-24T00:29:42;9.70;98.00
26575;DHT22;67165;50.256;10.978;2023-05-24T00:32:08;9.70;98.00
26575;DHT22;67165;50.256;10.978;2023-05-24T00:34:33;9.70;98.00
26575;DHT22;67165;50.256;10.978;2023-05-24T00:36:59;9.70;98.00
26575;DHT22;67165;50.256;10.978;2023-05-24T00:39:25;9.70;98.00
26575;DHT22;67165;50.256;10.978;2023-05-24T00:41:51;9.60;98.00
26575;DHT22;67165;50.256;10.978;2023-05-24T00:44:16;9.60;98.00
26575;DHT22;67165;50.256;10.978;2023-05-24T00:46:42;9.70;98.00
26575;DHT22;67165;50.256;10.978;2023-05-24T00:49:09;9.70;98.00
26575;DHT22;67165;50.256;10.978;2023-05-24T00:51:34;9.60;98.00
26575;DHT22;67165;50.256;10.978;2023-05-24T00:54:01;9.60;98.00
26575;DHT22;67165;50.256;10.978;2023-05-24T00:56:27;9.60;98.00
26575;DHT22;67165;50.256;10.978;2023-05-24T00:58:54;9.50;98.00
26575;DHT22;67165;50.256;10.978;2023-05-24T01:01:21;9.50;98.00
26575;DHT22;67165;50.256;10.978;2023-05-24T01:03:53;9.40;98.00
26575;DHT22;67165;50.256;10.978;2023-05-24T01:06:19;9.40;98.00
26575;DHT22;67165;50.256;10.978;2023-05-24T01:11:51;9.40;98.00
26575;DHT22;67165;50.256;10.978;2023-05-24T01:16:51;9.40;98.00
26575;DHT22;67165;50.256;10.978;2023-05-24T01:19:39;9.50;98.00
26575;DHT22;67165;50.256;10.978;2023-05-24T01:22:15;9.50;98.00
26575;DHT22;67165;50.256;10.978;2023-05-24T01:27:26;9.40;98.00
26575;DHT22;67165;50.256;10.978;2023-05-24T01:29:52;9.40;98.00
26575;DHT22;67165;50.256;10.978;2023-05-24T01:32:19;9.30;98.00
26575;DHT22;67165;50.256;10.978;2023-05-24T01:34:45;9.30;98.00
26575;DHT22;67165;50.256;10.978;2023-05-24T01:37:10;9.40;98.00
26575;DHT22;67165;50.256;10.978;2023-05-24T01:39:36;9.40;98.00
26575;DHT22;67165;50.256;10.978;2023-05-24T01:45:15;9.40;98.00
26575;DHT22;67165;50.256;10.978;2023-05-24T01:50:26;9.30;98.00
26575;DHT22;67165;50.256;10.978;2023-05-24T01:52:54;9.30;98.00
26575;DHT22;67165;50.256;10.978;2023-05-24T01:55:23;9.40;98.00
26575;DHT22;67165;50.256;10.978;2023-05-24T01:57:53;9.40;98.00
26575;DHT22;67165;50.256;10.978;2023-05-24T02:00:21;9.40;98.00
26575;DHT22;67165;50.256;10.978;2023-05-24T02:02:47;9.30;98.00
26575;DHT22;67165;50.256;10.978;2023-05-24T02:05:13;9.30;98.00
26575;DHT22;67165;50.256;10.978;2023-05-24T02:07:39;9.30;98.00
26575;DHT22;67165;50.256;10.978;2023-05-24T02:10:06;9.30;98.00
26575;DHT22;67165;50.256;10.978;2023-05-24T02:12:32;9.20;98.00
26575;DHT22;67165;50.256;10.978;2023-05-24T02:14:57;9.20;98.00
26575;DHT22;67165;50.256;10.978;2023-05-24T02:17:24;9.20;98.00
26575;DHT22;67165;50.256;10.978;2023-05-24T02:19:51;9.20;98.00
26575;DHT22;67165;50.256;10.978;2023-05-24T02:22:17;9.20;98.00
26575;DHT22;67165;50.256;10.978;2023-05-24T02:24:42;9.20;98.00
26575;DHT22;67165;50.256;10.978;2023-05-24T02:27:08;9.20;98.00
26575;DHT22;67165;50.256;10.978;2023-05-24T02:29:34;9.20;98.00
26575;DHT22;67165;50.256;10.978;2023-05-24T02:31:59;9.20;98.00
26575;DHT22;67165;50.256;10.978;2023-05-24T02:34:25;9.20;98.00
26575;DHT22;67165;50.256;10.978;2023-05-24T02:36:51;9.20;98.00
26575;DHT22;67165;50.256;10.978;2023-05-24T02:39:19;9.10;98.00
26575;DHT22;67165;50.256;10.978;2023-05-24T02:41:44;9.10;98.00
26575;DHT22;67165;50.256;10.978;2023-05-24T02:44:10;9.10;98.00
26575;DHT22;67165;50.256;10.978;2023-05-24T02:46:36;9.20;98.00
26575;DHT22;67165;50.256;10.978;2023-05-24T02:49:01;9.20;98.00
26575;DHT22;67165;50.256;10.978;2023-05-24T02:51:27;9.20;98.00
26575;DHT22;67165;50.256;10.978;2023-05-24T02:53:53;9.20;98.00
26575;DHT22;67165;50.256;10.978;2023-05-24T02:56:18;9.20;98.00
26575;DHT22;67165;50.256;10.978;2023-05-24T02:58:44;9.20;98.00
26575;DHT22;67165;50.256;10.978;2023-05-24T03:01:13;9.20;98.00
26575;DHT22;67165;50.256;10.978;2023-05-24T03:03:39;9.20;98.00
26575;DHT22;67165;50.256;10.978;2023-05-24T03:06:06;9.20;98.00
26575;DHT22;67165;50.256;10.978;2023-05-24T03:08:34;9.20;98.00
26575;DHT22;67165;50.256;10.978;2023-05-24T03:11:02;9.10;98.00
26575;DHT22;67165;50.256;10.978;2023-05-24T03:13:27;9.10;98.00
26575;DHT22;67165;50.256;10.978;2023-05-24T03:15:53;9.10;98.00
26575;DHT22;67165;50.256;10.978;2023-05-24T03:18:19;9.10;98.00
26575;DHT22;67165;50.256;10.978;2023-05-24T03:20:45;9.10;98.00
26575;DHT22;67165;50.256;10.978;2023-05-24T03:23:10;9.10;98.00
26575;DHT22;67165;50.256;10.978;2023-05-24T03:25:37;9.10;98.00
26575;DHT22;67165;50.256;10.978;2023-05-24T03:28:02;9.00;98.00
26575;DHT22;67165;50.256;10.978;2023-05-24T03:30:28;9.00;98.00
26575;DHT22;67165;50.256;10.978;2023-05-24T03:32:54;9.10;98.00
26575;DHT22;67165;50.256;10.978;2023-05-24T03:35:20;9.10;98.00
26575;DHT22;67165;50.256;10.978;2023-05-24T03:37:45;9.00;98.00
26575;DHT22;67165;50.256;10.978;2023-05-24T03:40:11;9.00;98.00
26575;DHT22;67165;50.256;10.978;2023-05-24T03:42:37;9.10;98.00
26575;DHT22;67165;50.256;10.978;2023-05-24T03:45:05;9.10;98.00
26575;DHT22;67165;50.256;10.978;2023-05-24T03:47:31;9.00;98.00
26575;DHT22;67165;50.256;10.978;2023-05-24T03:49:56;9.10;98.00
26575;DHT22;67165;50.256;10.978;2023-05-24T03:52:22;9.00;98.00
26575;DHT22;67165;50.256;10.978;2023-05-24T03:54:48;9.00;98.00
26575;DHT22;67165;50.256;10.978;2023-05-24T03:57:14;9.00;98.00
26575;DHT22;67165;50.256;10.978;2023-05-24T03:59:40;9.00;98.00
26575;DHT22;67165;50.256;10.978;2023-05-24T04:02:05;9.00;98.00
26575;DHT22;67165;50.256;10.978;2023-05-24T04:04:31;9.10;98.00
26575;DHT22;67165;50.256;10.978;2023-05-24T04:06:57;9.10;98.00
26575;DHT22;67165;50.256;10.978;2023-05-24T04:09:22;9.20;98.00
26575;DHT22;67165;50.256;10.978;2023-05-24T04:11:48;9.20;98.00
26575;DHT22;67165;50.256;10.978;2023-05-24T04:14:14;9.20;98.00
26575;DHT22;67165;50.256;10.978;2023-05-24T04:16:40;9.10;98.00
26575;DHT22;67165;50.256;10.978;2023-05-24T04:19:06;9.10;98.00
26575;DHT22;67165;50.256;10.978;2023-05-24T04:21:33;9.20;98.00
26575;DHT22;67165;50.256;10.978;2023-05-24T04:23:59;9.20;98.00
26575;DHT22;67165;50.256;10.978;2023-05-24T04:26:26;9.30;98.00
26575;DHT22;67165;50.256;10.978;2023-05-24T04:28:52;9.20;98.00
26575;DHT22;67165;50.256;10.978;2023-05-24T04:31:18;9.20;98.00
26575;DHT22;67165;50.256;10.978;2023-05-24T04:33:45;9.30;98.00
26575;DHT22;67165;50.256;10.978;2023-05-24T04:36:12;9.30;98.00
26575;DHT22;67165;50.256;10.978;2023-05-24T04:38:38;9.30;98.00
26575;DHT22;67165;50.256;10.978;2023-05-24T04:41:05;9.30;98.00
26575;DHT22;67165;50.256;10.978;2023-05-24T04:43:32;9.40;98.00
26575;DHT22;67165;50.256;10.978;2023-05-24T04:46:01;9.50;98.00
26575;DHT22;67165;50.256;10.978;2023-05-24T04:48:27;9.60;98.00
26575;DHT22;67165;50.256;10.978;2023-05-24T04:50:54;9.50;98.00
26575;DHT22;67165;50.256;10.978;2023-05-24T04:53:21;9.60;98.00
26575;DHT22;67165;50.256;10.978;2023-05-24T04:55:48;9.70;98.00
26575;DHT22;67165;50.256;10.978;2023-05-24T04:58:14;9.80;98.00
26575;DHT22;67165;50.256;10.978;2023-05-24T05:00:40;9.90;98.00
26575;DHT22;67165;50.256;10.978;2023-05-24T05:03:06;9.90;98.00
26575;DHT22;67165;50.256;10.978;2023-05-24T05:05:32;9.90;98.00
26575;DHT22;67165;50.256;10.978;2023-05-24T05:07:58;9.90;98.00
26575;DHT22;67165;50.256;10.978;2023-05-24T05:10:23;10.00;98.00
26575;DHT22;67165;50.256;10.978;2023-05-24T05:12:50;10.00;98.00
26575;DHT22;67165;50.256;10.978;2023-05-24T05:15:16;10.00;98.00
26575;DHT22;67165;50.256;10.978;2023-05-24T05:17:41;10.00;98.00
26575;DHT22;67165;50.256;10.978;2023-05-24T05:20:07;10.00;98.00
26575;DHT22;67165;50.256;10.978;2023-05-24T05:22:33;10.10;98.00
26575;DHT22;67165;50.256;10.978;2023-05-24T05:24:59;10.00;98.00
26575;DHT22;67165;50.256;10.978;2023-05-24T05:27:26;10.10;98.00
26575;DHT22;67165;50.256;10.978;2023-05-24T05:29:51;10.10;98.00
26575;DHT22;67165;50.256;10.978;2023-05-24T05:32:17;10.10;98.00
26575;DHT22;67165;50.256;10.978;2023-05-24T05:34:43;10.10;98.00
26575;DHT22;67165;50.256;10.978;2023-05-24T05:37:09;10.10;98.00
26575;DHT22;67165;50.256;10.978;2023-05-24T05:39:35;10.20;98.00
26575;DHT22;67165;50.256;10.978;2023-05-24T05:42:01;10.10;98.00
26575;DHT22;67165;50.256;10.978;2023-05-24T05:44:27;10.20;98.00
26575;DHT22;67165;50.256;10.978;2023-05-24T05:46:52;10.30;98.00
26575;DHT22;67165;50.256;10.978;2023-05-24T05:49:18;10.40;98.00
26575;DHT22;67165;50.256;10.978;2023-05-24T05:51:44;10.50;98.00
26575;DHT22;67165;50.256;10.978;2023-05-24T05:54:11;10.60;98.00
26575;DHT22;67165;50.256;10.978;2023-05-24T05:56:43;10.60;98.00
26575;DHT22;67165;50.256;10.978;2023-05-24T05:59:13;10.60;98.00
26575;DHT22;67165;50.256;10.978;2023-05-24T06:01:40;10.70;98.00
26575;DHT22;67165;50.256;10.978;2023-05-24T06:04:06;10.70;98.00
26575;DHT22;67165;50.256;10.978;2023-05-24T06:06:31;10.70;98.00
26575;DHT22;67165;50.256;10.978;2023-05-24T06:09:00;10.80;98.00
26575;DHT22;67165;50.256;10.978;2023-05-24T06:11:26;10.80;98.00
26575;DHT22;67165;50.256;10.978;2023-05-24T06:13:52;11.00;98.00
26575;DHT22;67165;50.256;10.978;2023-05-24T06:16:18;11.10;98.00
26575;DHT22;67165;50.256;10.978;2023-05-24T06:18:45;11.10;98.00
26575;DHT22;67165;50.256;10.978;2023-05-24T06:21:13;11.30;98.00
26575;DHT22;67165;50.256;10.978;2023-05-24T06:23:39;11.40;98.00
26575;DHT22;67165;50.256;10.978;2023-05-24T06:26:05;11.40;98.00
26575;DHT22;67165;50.256;10.978;2023-05-24T06:28:34;11.70;98.00
26575;DHT22;67165;50.256;10.978;2023-05-24T06:31:00;11.80;98.00
26575;DHT22;67165;50.256;10.978;2023-05-24T06:33:26;12.10;98.00
26575;DHT22;67165;50.256;10.978;2023-05-24T06:35:52;12.70;98.00
26575;DHT22;67165;50.256;10.978;2023-05-24T06:38:17;13.00;98.00
26575;DHT22;67165;50.256;10.978;2023-05-24T06:40:43;13.40;98.00
26575;DHT22;67165;50.256;10.978;2023-05-24T06:43:09;13.90;98.00
26575;DHT22;67165;50.256;10.978;2023-05-24T06:45:35;14.20;98.00
26575;DHT22;67165;50.256;10.978;2023-05-24T06:48:01;14.10;98.00
26575;DHT22;67165;50.256;10.978;2023-05-24T06:50:27;14.00;98.00
26575;DHT22;67165;50.256;10.978;2023-05-24T06:52:53;14.10;98.00
26575;DHT22;67165;50.256;10.978;2023-05-24T06:55:19;13.90;98.00
26575;DHT22;67165;50.256;10.978;2023-05-24T06:57:45;13.80;98.00
26575;DHT22;67165;50.256;10.978;2023-05-24T07:00:11;13.70;98.00
26575;DHT22;67165;50.256;10.978;2023-05-24T07:02:38;13.90;98.00
26575;DHT22;67165;50.256;10.978;2023-05-24T07:05:04;13.90;98.00
26575;DHT22;67165;50.256;10.978;2023-05-24T07:07:30;14.10;98.00
26575;DHT22;67165;50.256;10.978;2023-05-24T07:09:56;14.10;98.00
26575;DHT22;67165;50.256;10.978;2023-05-24T07:12:22;13.80;98.00
26575;DHT22;67165;50.256;10.978;2023-05-24T07:14:48;13.70;98.00
26575;DHT22;67165;50.256;10.978;2023-05-24T07:17:13;13.80;98.00
26575;DHT22;67165;50.256;10.978;2023-05-24T07:19:39;14.00;98.00
26575;DHT22;67165;50.256;10.978;2023-05-24T07:22:06;14.00;98.00
26575;DHT22;67165;50.256;10.978;2023-05-24T07:24:31;14.30;98.00
26575;DHT22;67165;50.256;10.978;2023-05-24T07:26:57;14.60;98.00
26575;DHT22;67165;50.256;10.978;2023-05-24T07:29:23;14.80;98.00
26575;DHT22;67165;50.256;10.978;2023-05-24T07:31:50;15.00;98.00
26575;DHT22;67165;50.256;10.978;2023-05-24T07:34:17;14.90;98.00
26575;DHT22;67165;50.256;10.978;2023-05-24T07:36:44;14.70;98.00
26575;DHT22;67165;50.256;10.978;2023-05-24T07:39:12;14.80;98.00
26575;DHT22;67165;50.256;10.978;2023-05-24T07:41:40;14.70;98.00
26575;DHT22;67165;50.256;10.978;2023-05-24T07:44:06;14.50;98.00
26575;DHT22;67165;50.256;10.978;2023-05-24T07:46:31;14.50;98.00
26575;DHT22;67165;50.256;10.978;2023-05-24T07:48:58;14.80;98.00
26575;DHT22;67165;50.256;10.978;2023-05-24T07:51:24;15.10;98.00
26575;DHT22;67165;50.256;10.978;2023-05-24T07:53:50;14.90;98.00
26575;DHT22;67165;50.256;10.978;2023-05-24T07:56:15;14.90;98.00
26575;DHT22;67165;50.256;10.978;2023-05-24T07:58:41;15.10;98.00
26575;DHT22;67165;50.256;10.978;2023-05-24T08:01:11;15.60;98.00
26575;DHT22;67165;50.256;10.978;2023-05-24T08:03:37;15.90;98.00
26575;DHT22;67165;50.256;10.978;2023-05-24T08:06:04;16.10;98.00
26575;DHT22;67165;50.256;10.978;2023-05-24T08:08:29;16.30;98.00
26575;DHT22;67165;50.256;10.978;2023-05-24T08:10:55;16.90;96.90
26575;DHT22;67165;50.256;10.978;2023-05-24T08:13:21;17.40;96.30
26575;DHT22;67165;50.256;10.978;2023-05-24T08:15:47;17.90;94.30
26575;DHT22;67165;50.256;10.978;2023-05-24T08:18:12;18.00;94.70
26575;DHT22;67165;50.256;10.978;2023-05-24T08:20:38;18.30;93.10
26575;DHT22;67165;50.256;10.978;2023-05-24T08:23:05;18.50;91.80
26575;DHT22;67165;50.256;10.978;2023-05-24T08:25:30;18.10;92.60
26575;DHT22;67165;50.256;10.978;2023-05-24T08:27:56;18.30;90.80
26575;DHT22;67165;50.256;10.978;2023-05-24T08:30:22;18.40;90.40
26575;DHT22;67165;50.256;10.978;2023-05-24T08:32:47;17.80;88.60
26575;DHT22;67165;50.256;10.978;2023-05-24T08:35:13;18.10;90.60
26575;DHT22;67165;50.256;10.978;2023-05-24T08:37:39;18.50;90.20
26575;DHT22;67165;50.256;10.978;2023-05-24T08:40:05;18.10;87.70
26575;DHT22;67165;50.256;10.978;2023-05-24T08:42:36;18.20;87.70
26575;DHT22;67165;50.256;10.978;2023-05-24T08:45:06;17.70;88.30
26575;DHT22;67165;50.256;10.978;2023-05-24T08:47:35;17.50;89.80
26575;DHT22;67165;50.256;10.978;2023-05-24T08:50:02;17.70;90.00
26575;DHT22;67165;50.256;10.978;2023-05-24T08:52:30;17.90;89.70
26575;DHT22;67165;50.256;10.978;2023-05-24T08:54:58;17.90;89.30
26575;DHT22;67165;50.256;10.978;2023-05-24T08:57:26;17.80;90.50
26575;DHT22;67165;50.256;10.978;2023-05-24T08:59:52;17.80;89.00
26575;DHT22;67165;50.256;10.978;2023-05-24T09:02:22;18.00;88.20
26575;DHT22;67165;50.256;10.978;2023-05-24T09:04:49;17.80;89.50
26575;DHT22;67165;50.256;10.978;2023-05-24T09:07:21;17.60;87.80
26575;DHT22;67165;50.256;10.978;2023-05-24T09:09:56;17.70;86.10
26575;DHT22;67165;50.256;10.978;2023-05-24T09:12:23;18.00;88.40
26575;DHT22;67165;50.256;10.978;2023-05-24T09:14:50;18.20;87.20
26575;DHT22;67165;50.256;10.978;2023-05-24T09:17:17;18.30;87.00
26575;DHT22;67165;50.256;10.978;2023-05-24T09:19:44;18.60;87.30
26575;DHT22;67165;50.256;10.978;2023-05-24T09:22:14;18.40;87.30
26575;DHT22;67165;50.256;10.978;2023-05-24T09:24:42;18.70;87.20
26575;DHT22;67165;50.256;10.978;2023-05-24T09:27:14;18.70;86.30
26575;DHT22;67165;50.256;10.978;2023-05-24T09:29:40;18.30;85.70
26575;DHT22;67165;50.256;10.978;2023-05-24T09:32:07;18.60;86.70
26575;DHT22;67165;50.256;10.978;2023-05-24T09:34:40;18.50;87.00
26575;DHT22;67165;50.256;10.978;2023-05-24T09:37:12;18.50;86.70
26575;DHT22;67165;50.256;10.978;2023-05-24T09:39:41;18.30;86.60
26575;DHT22;67165;50.256;10.978;2023-05-24T09:42:07;18.20;84.30
26575;DHT22;67165;50.256;10.978;2023-05-24T09:44:33;17.80;85.40
26575;DHT22;67165;50.256;10.978;2023-05-24T09:47:02;17.50;86.90
26575;DHT22;67165;50.256;10.978;2023-05-24T09:49:32;17.60;87.00
26575;DHT22;67165;50.256;10.978;2023-05-24T09:51:58;17.40;87.70
26575;DHT22;67165;50.256;10.978;2023-05-24T09:54:24;17.20;90.40
26575;DHT22;67165;50.256;10.978;2023-05-24T09:56:52;17.50;89.80
26575;DHT22;67165;50.256;10.978;2023-05-24T09:59:18;17.20;88.90
26575;DHT22;67165;50.256;10.978;2023-05-24T10:01:44;17.30;89.30
26575;DHT22;67165;50.256;10.978;2023-05-24T10:04:11;17.20;90.70
26575;DHT22;67165;50.256;10.978;2023-05-24T10:06:41;17.30;91.70
26575;DHT22;67165;50.256;10.978;2023-05-24T10:09:07;17.20;90.70
26575;DHT22;67165;50.256;10.978;2023-05-24T10:11:35;17.30;90.50
26575;DHT22;67165;50.256;10.978;2023-05-24T10:14:04;17.00;88.30
26575;DHT22;67165;50.256;10.978;2023-05-24T10:16:31;16.70;90.40
26575;DHT22;67165;50.256;10.978;2023-05-24T10:18:57;16.60;90.50
26575;DHT22;67165;50.256;10.978;2023-05-24T10:21:23;16.80;92.50
26575;DHT22;67165;50.256;10.978;2023-05-24T10:23:55;16.90;91.70
26575;DHT22;67165;50.256;10.978;2023-05-24T10:26:23;17.10;92.10
26575;DHT22;67165;50.256;10.978;2023-05-24T10:28:54;16.90;90.20
26575;DHT22;67165;50.256;10.978;2023-05-24T10:31:30;17.00;90.20
26575;DHT22;67165;50.256;10.978;2023-05-24T10:34:02;16.80;91.90
26575;DHT22;67165;50.256;10.978;2023-05-24T10:36:29;17.00;91.70
26575;DHT22;67165;50.256;10.978;2023-05-24T10:38:57;17.20;92.10
26575;DHT22;67165;50.256;10.978;2023-05-24T10:41:25;17.20;90.00
26575;DHT22;67165;50.256;10.978;2023-05-24T10:43:52;17.20;90.30
26575;DHT22;67165;50.256;10.978;2023-05-24T10:46:19;17.30;90.60
26575;DHT22;67165;50.256;10.978;2023-05-24T10:48:58;17.20;89.60
26575;DHT22;67165;50.256;10.978;2023-05-24T10:51:42;17.20;88.20
26575;DHT22;67165;50.256;10.978;2023-05-24T10:54:18;17.40;88.90
26575;DHT22;67165;50.256;10.978;2023-05-24T10:56:46;17.70;89.90
26575;DHT22;67165;50.256;10.978;2023-05-24T10:59:32;17.80;89.40
26575;DHT22;67165;50.256;10.978;2023-05-24T11:02:03;18.10;87.90
26575;DHT22;67165;50.256;10.978;2023-05-24T11:04:32;17.90;89.20
26575;DHT22;67165;50.256;10.978;2023-05-24T11:07:03;18.20;88.50
26575;DHT22;67165;50.256;10.978;2023-05-24T11:09:30;18.20;89.90
26575;DHT22;67165;50.256;10.978;2023-05-24T11:12:00;18.20;89.10
26575;DHT22;67165;50.256;10.978;2023-05-24T11:14:36;18.30;88.70
26575;DHT22;67165;50.256;10.978;2023-05-24T11:17:04;18.40;87.50
26575;DHT22;67165;50.256;10.978;2023-05-24T11:19:43;18.10;87.80
26575;DHT22;67165;50.256;10.978;2023-05-24T11:22:09;18.10;88.20
26575;DHT22;67165;50.256;10.978;2023-05-24T11:24:39;18.00;88.90
26575;DHT22;67165;50.256;10.978;2023-05-24T11:27:06;18.10;89.40
26575;DHT22;67165;50.256;10.978;2023-05-24T11:29:32;17.90;89.40
26575;DHT22;67165;50.256;10.978;2023-05-24T11:32:04;17.80;88.80
26575;DHT22;67165;50.256;10.978;2023-05-24T11:34:30;17.80;91.20
26575;DHT22;67165;50.256;10.978;2023-05-24T11:37:01;17.80;90.60
26575;DHT22;67165;50.256;10.978;2023-05-24T11:39:30;17.90;90.20
26575;DHT22;67165;50.256;10.978;2023-05-24T11:41:56;17.90;89.60
26575;DHT22;67165;50.256;10.978;2023-05-24T11:44:22;17.50;90.30
26575;DHT22;67165;50.256;10.978;2023-05-24T11:46:48;17.40;90.80
26575;DHT22;67165;50.256;10.978;2023-05-24T11:49:15;17.20;90.70
26575;DHT22;67165;50.256;10.978;2023-05-24T11:51:41;17.20;91.40
26575;DHT22;67165;50.256;10.978;2023-05-24T11:54:07;16.70;92.30
26575;DHT22;67165;50.256;10.978;2023-05-24T11:56:33;16.90;93.50
26575;DHT22;67165;50.256;10.978;2023-05-24T12:01:37;16.90;91.10
26575;DHT22;67165;50.256;10.978;2023-05-24T12:04:05;16.80;89.70
26575;DHT22;67165;50.256;10.978;2023-05-24T12:06:37;16.80;89.70
26575;DHT22;67165;50.256;10.978;2023-05-24T12:09:03;17.00;90.50
26575;DHT22;67165;50.256;10.978;2023-05-24T12:11:41;17.20;91.40
26575;DHT22;67165;50.256;10.978;2023-05-24T12:14:11;17.40;90.50
26575;DHT22;67165;50.256;10.978;2023-05-24T12:16:38;17.50;87.50
26575;DHT22;67165;50.256;10.978;2023-05-24T12:19:04;17.60;90.40
26575;DHT22;67165;50.256;10.978;2023-05-24T12:21:31;17.60;88.80
26575;DHT22;67165;50.256;10.978;2023-05-24T12:24:07;17.50;87.60
26575;DHT22;67165;50.256;10.978;2023-05-24T12:26:36;17.30;88.60
26575;DHT22;67165;50.256;10.978;2023-05-24T12:29:02;17.10;89.30
26575;DHT22;67165;50.256;10.978;2023-05-24T12:31:27;17.20;90.60
26575;DHT22;67165;50.256;10.978;2023-05-24T12:33:53;17.20;89.00
26575;DHT22;67165;50.256;10.978;2023-05-24T12:36:19;17.00;88.70
26575;DHT22;67165;50.256;10.978;2023-05-24T12:38:45;17.20;88.80
26575;DHT22;67165;50.256;10.978;2023-05-24T12:41:11;17.20;87.30
26575;DHT22;67165;50.256;10.978;2023-05-24T12:43:37;17.30;89.10
26575;DHT22;67165;50.256;10.978;2023-05-24T12:46:03;17.30;88.60
26575;DHT22;67165;50.256;10.978;2023-05-24T12:48:29;17.30;89.40
26575;DHT22;67165;50.256;10.978;2023-05-24T12:50:55;17.10;88.60
26575;DHT22;67165;50.256;10.978;2023-05-24T12:53:21;17.10;89.70
26575;DHT22;67165;50.256;10.978;2023-05-24T12:55:48;17.30;90.00
26575;DHT22;67165;50.256;10.978;2023-05-24T12:58:20;17.40;89.00
26575;DHT22;67165;50.256;10.978;2023-05-24T13:00:46;17.30;88.20
26575;DHT22;67165;50.256;10.978;2023-05-24T13:03:14;17.20;88.20
26575;DHT22;67165;50.256;10.978;2023-05-24T13:05:40;17.10;88.60
26575;DHT22;67165;50.256;10.978;2023-05-24T13:08:07;17.10;87.80
26575;DHT22;67165;50.256;10.978;2023-05-24T13:10:32;17.10;88.00
26575;DHT22;67165;50.256;10.978;2023-05-24T13:12:58;17.00;87.60
26575;DHT22;67165;50.256;10.978;2023-05-24T13:15:24;17.00;88.30
26575;DHT22;67165;50.256;10.978;2023-05-24T13:17:52;17.00;88.90
26575;DHT22;67165;50.256;10.978;2023-05-24T13:20:18;16.80;88.90
26575;DHT22;67165;50.256;10.978;2023-05-24T13:22:47;16.90;88.30
26575;DHT22;67165;50.256;10.978;2023-05-24T13:25:13;17.00;87.90
26575;DHT22;67165;50.256;10.978;2023-05-24T13:27:40;17.00;87.30
26575;DHT22;67165;50.256;10.978;2023-05-24T13:30:06;16.90;86.80
26575;DHT22;67165;50.256;10.978;2023-05-24T13:32:32;16.90;87.40
26575;DHT22;67165;50.256;10.978;2023-05-24T13:34:58;16.90;88.30
26575;DHT22;67165;50.256;10.978;2023-05-24T13:37:23;16.70;86.50
26575;DHT22;67165;50.256;10.978;2023-05-24T13:39:50;16.70;88.70
26575;DHT22;67165;50.256;10.978;2023-05-24T13:42:15;16.60;88.30
26575;DHT22;67165;50.256;10.978;2023-05-24T13:44:41;16.80;88.90
26575;DHT22;67165;50.256;10.978;2023-05-24T13:47:07;17.00;87.80
26575;DHT22;67165;50.256;10.978;2023-05-24T13:49:33;17.10;89.10
26575;DHT22;67165;50.256;10.978;2023-05-24T13:51:58;17.10;87.60
26575;DHT22;67165;50.256;10.978;2023-05-24T13:54:24;17.10;88.20
26575;DHT22;67165;50.256;10.978;2023-05-24T13:56:50;17.20;88.00
26575;DHT22;67165;50.256;10.978;2023-05-24T13:59:17;17.20;88.40
26575;DHT22;67165;50.256;10.978;2023-05-24T14:01:43;17.10;88.60
26575;DHT22;67165;50.256;10.978;2023-05-24T14:04:10;17.10;91.00
26575;DHT22;67165;50.256;10.978;2023-05-24T14:06:35;17.30;89.60
26575;DHT22;67165;50.256;10.978;2023-05-24T14:09:03;17.20;89.60
26575;DHT22;67165;50.256;10.978;2023-05-24T14:11:31;17.40;90.30
26575;DHT22;67165;50.256;10.978;2023-05-24T14:13:56;17.40;89.60
26575;DHT22;67165;50.256;10.978;2023-05-24T14:16:23;17.50;89.40
26575;DHT22;67165;50.256;10.978;2023-05-24T14:18:49;17.60;88.90
26575;DHT22;67165;50.256;10.978;2023-05-24T14:21:17;17.60;90.00
26575;DHT22;67165;50.256;10.978;2023-05-24T14:23:43;17.70;90.00
26575;DHT22;67165;50.256;10.978;2023-05-24T14:26:08;17.60;90.30
26575;DHT22;67165;50.256;10.978;2023-05-24T14:28:34;17.80;90.70
26575;DHT22;67165;50.256;10.978;2023-05-24T14:31:01;18.00;90.20
26575;DHT22;67165;50.256;10.978;2023-05-24T14:33:26;18.10;89.90
26575;DHT22;67165;50.256;10.978;2023-05-24T14:35:52;18.40;88.90
26575;DHT22;67165;50.256;10.978;2023-05-24T14:38:18;18.50;88.70
26575;DHT22;67165;50.256;10.978;2023-05-24T14:40:43;18.60;87.30
26575;DHT22;67165;50.256;10.978;2023-05-24T14:43:11;18.40;86.80
26575;DHT22;67165;50.256;10.978;2023-05-24T14:45:38;18.30;86.40
26575;DHT22;67165;50.256;10.978;2023-05-24T14:48:08;18.50;87.20
26575;DHT22;67165;50.256;10.978;2023-05-24T14:50:38;18.00;82.20
26575;DHT22;67165;50.256;10.978;2023-05-24T14:53:04;18.00;82.80
26575;DHT22;67165;50.256;10.978;2023-05-24T14:55:34;17.80;81.90
26575;DHT22;67165;50.256;10.978;2023-05-24T14:58:00;17.60;81.80
26575;DHT22;67165;50.256;10.978;2023-05-24T15:00:26;17.40;85.00
26575;DHT22;67165;50.256;10.978;2023-05-24T15:02:52;17.50;87.20
26575;DHT22;67165;50.256;10.978;2023-05-24T15:05:18;17.70;88.50
26575;DHT22;67165;50.256;10.978;2023-05-24T15:07:43;17.80;88.00
26575;DHT22;67165;50.256;10.978;2023-05-24T15:10:09;17.60;87.70
26575;DHT22;67165;50.256;10.978;2023-05-24T15:12:35;17.30;87.30
26575;DHT22;67165;50.256;10.978;2023-05-24T15:15:01;17.20;89.80
26575;DHT22;67165;50.256;10.978;2023-05-24T15:17:27;17.10;90.70
26575;DHT22;67165;50.256;10.978;2023-05-24T15:19:52;16.90;88.80
26575;DHT22;67165;50.256;10.978;2023-05-24T15:22:18;16.80;88.50
26575;DHT22;67165;50.256;10.978;2023-05-24T15:24:44;16.70;89.00
26575;DHT22;67165;50.256;10.978;2023-05-24T15:27:10;16.70;88.70
26575;DHT22;67165;50.256;10.978;2023-05-24T15:29:36;16.80;88.90
26575;DHT22;67165;50.256;10.978;2023-05-24T15:32:01;16.80;88.90
26575;DHT22;67165;50.256;10.978;2023-05-24T15:34:27;16.80;90.20